Divide, Colorado
Current Conditions -  °F | °C
As of 5:58 AM on Thursday 18 Dec 2014 (Local Time) from KAFF Reporting Station
Scattered Clouds Scattered Clouds  
Wind Chill: 26°   Ceiling: Unl
Heat Index: 26°   Visibility: 10mi
Dew Point: 26°   Wind: 2mph
Humidity: 99%   Direction: 20°NNE
Pressure: 29.99"   Gusts: NA
Location:  38.94°N, 105.16°W
Report Text: KAFF 181258Z AUTO 02002KT 10SM SCT010 M03/M03 A2999 RMK AO2 SLP181 T10331034
Loading
Personal Weather Stations






























Interactive Weather Map New forecast layout! Learn more

10-Day Weather Forecast

Advertisements
Track Severe Weather on mobile